Airfield :
LOGIN :

Register | Disclaimer

   EN    FR    IT 

 










Legend :    VFR   Marginal VFR   IFR   Intensive IFR   Very Intensive IFR
Visi :
Ceiling :
>= 8 km
>= 3000ft
5 to 8 km
1000 to 3000 ft
1500m to 5 km
500 to 1000 ft
800 to 1500m
200 to 500 ft
< 800m
< 200 ft
Symbols :   Thunderstorms  Fog  Heavy snow  Heavy precipitations  Wind > 20 kt
SIGMETs :     Misc.  Thunderstorms  Icing  Turbulence  Mountain Waves  Volcanic Ashes






- Airport Elevation : 1071 ft
- IATA code : LWO


UKLL - L'viv

CURRENT METAR :
  • 290600Z 00000MPS 8000 NSC 12/11 Q1011 R13/211970 NOSIG

EXPIRED METARs :
  • 290530Z 00000MPS 9000 NSC 12/12 Q1011 R13/211970 NOSIG
  • 290500Z 00000MPS 8000 NSC 12/12 Q1011 R13/290055 NOSIG
  • 290430Z 18002MPS 9000 NSC 12/12 Q1011 R13/290055 NOSIG
  • 290400Z 15002MPS 8000 BKN040 12/12 Q1011 R13/290055 NOSIG
  • 290330Z 23001MPS CAVOK 12/11 Q1011 R13/290055 NOSIG

TAF TAF UKLL
Valid from the 29 at 06:00 until the 30 at 06:00 UTC


290506Z 2906/3006 VRB01MPS 4000 BR SCT004 BKN008
TEMPO 2906/2911 2100 -SHRA BKN007 BKN022CB
BECMG 2911/2912 34003MPS
TEMPO 2912/2916 VRB06G12MPS 2100 -TSRA BKN007 BKN020CB
TEMPO 2916/3006 36005MPS 2100 -SHRA SCT003 BKN007 BKN018CB



MET'MAP, your aeronautical weather chart ! - Copyright ORBIFLY December 2007 - Disclaimer

ORBIFLY MET'MAP TEAM :

Programming & Development : Alexandra Zaïnal
Concept & original design : Baudouin d'Aumeries
Assistance for programming : Marc-Olivier Méhu
Technical & hardware support : Manuel Goepfert

Contact : metmap@orbifly.com




SOURCES & CREDITS :

   NOAA